createdAt,value
2018-07-28T00:00:49.731Z,0.90
2018-07-28T00:03:17.957Z,0.90
2018-07-28T00:05:46.188Z,0.90
2018-07-28T00:08:14.685Z,0.90
2018-07-28T00:10:42.954Z,1.53
2018-07-28T00:13:10.936Z,0.90
2018-07-28T00:15:39.203Z,1.17
2018-07-28T00:18:07.427Z,0.90
2018-07-28T00:20:35.670Z,0.90
2018-07-28T00:23:03.910Z,0.90
2018-07-28T00:25:38.590Z,0.90
2018-07-28T00:28:07.528Z,0.90
2018-07-28T00:30:35.738Z,1.00
2018-07-28T00:33:03.977Z,0.90
2018-07-28T00:35:32.204Z,0.90
2018-07-28T00:38:00.441Z,1.57
2018-07-28T00:40:28.653Z,0.90
2018-07-28T00:42:56.868Z,0.90
2018-07-28T00:45:25.130Z,0.90
2018-07-28T00:47:53.365Z,0.90
2018-07-28T00:50:21.625Z,0.90
2018-07-28T00:52:49.885Z,0.90
2018-07-28T00:55:17.895Z,1.10
2018-07-28T00:57:46.132Z,0.90
2018-07-28T01:00:14.358Z,0.90
2018-07-28T01:02:42.378Z,0.90
2018-07-28T01:05:10.629Z,0.90
2018-07-28T01:07:38.849Z,0.90
2018-07-28T01:10:07.519Z,1.00
2018-07-28T01:12:35.907Z,0.90
2018-07-28T01:15:05.400Z,0.90
2018-07-28T01:17:33.677Z,0.90
2018-07-28T01:20:01.916Z,0.90
2018-07-28T01:22:30.164Z,1.10
2018-07-28T01:24:58.391Z,0.90
2018-07-28T01:27:26.674Z,0.90
2018-07-28T01:29:54.922Z,0.90
2018-07-28T01:32:23.153Z,0.90
2018-07-28T01:34:51.370Z,0.90
2018-07-28T01:37:19.611Z,0.90
2018-07-28T01:39:47.821Z,0.90
2018-07-28T01:42:16.089Z,0.90
2018-07-28T01:44:44.322Z,0.90
2018-07-28T01:47:12.598Z,0.90
2018-07-28T01:49:40.820Z,0.90
2018-07-28T01:52:09.084Z,0.90
2018-07-28T01:54:37.294Z,0.90
2018-07-28T01:57:05.574Z,0.90
2018-07-28T01:59:33.799Z,0.87
2018-07-28T02:02:01.761Z,0.90
2018-07-28T02:04:30.016Z,0.90
2018-07-28T02:06:58.236Z,0.90
2018-07-28T02:09:26.468Z,0.90
2018-07-28T02:11:54.707Z,0.90
2018-07-28T02:14:22.911Z,0.90
2018-07-28T02:16:50.863Z,0.90
2018-07-28T02:19:19.106Z,0.90
2018-07-28T02:21:47.310Z,0.90
2018-07-28T02:24:15.561Z,0.90
2018-07-28T02:26:43.809Z,0.90
2018-07-28T02:29:12.341Z,1.00
2018-07-28T02:31:41.052Z,0.90
2018-07-28T02:34:09.361Z,0.90
2018-07-28T02:36:37.593Z,0.90
2018-07-28T02:39:08.373Z,0.90
2018-07-28T02:41:36.341Z,0.90
2018-07-28T02:44:05.170Z,1.00
2018-07-28T02:46:33.404Z,0.90
2018-07-28T02:49:01.655Z,0.90
2018-07-28T02:51:29.902Z,0.90
2018-07-28T02:53:58.111Z,0.83
2018-07-28T02:56:26.334Z,0.90
2018-07-28T02:58:54.574Z,0.90
2018-07-28T03:01:22.533Z,0.90
2018-07-28T03:03:50.780Z,0.90
2018-07-28T03:06:19.045Z,0.90
2018-07-28T03:08:47.287Z,0.90
2018-07-28T03:11:15.519Z,0.90
2018-07-28T03:13:43.781Z,0.90
2018-07-28T03:16:13.741Z,0.90
2018-07-28T03:18:42.026Z,0.90
2018-07-28T03:21:10.277Z,0.90
2018-07-28T03:23:38.530Z,0.90
2018-07-28T03:26:06.754Z,0.90
2018-07-28T03:31:25.866Z,0.90
2018-07-28T03:33:54.105Z,0.90
2018-07-28T03:36:22.362Z,0.90
2018-07-28T03:38:50.588Z,0.90
2018-07-28T03:41:18.814Z,0.90
2018-07-28T03:43:47.020Z,0.90
2018-07-28T03:46:14.984Z,0.90
2018-07-28T03:48:43.212Z,0.90
2018-07-28T03:51:11.477Z,0.90
2018-07-28T03:53:39.495Z,0.90
2018-07-28T03:56:07.797Z,0.90
2018-07-28T03:58:36.018Z,1.10
2018-07-28T04:01:04.262Z,0.90
2018-07-28T04:03:32.509Z,0.90
2018-07-28T04:06:00.797Z,0.90
2018-07-28T04:08:28.811Z,1.20
2018-07-28T04:10:57.164Z,0.90
2018-07-28T04:13:25.477Z,0.90
2018-07-28T04:15:53.696Z,0.90
2018-07-28T04:18:21.928Z,0.90
2018-07-28T04:20:50.152Z,0.90
2018-07-28T04:23:18.393Z,0.90
2018-07-28T04:25:46.619Z,0.90
2018-07-28T04:28:14.972Z,0.90
2018-07-28T04:30:43.250Z,0.90
2018-07-28T04:33:11.502Z,0.90
2018-07-28T04:35:39.756Z,1.17
2018-07-28T04:38:07.988Z,0.90
2018-07-28T04:40:36.204Z,0.90
2018-07-28T04:43:04.463Z,0.90
2018-07-28T04:45:32.699Z,0.90
2018-07-28T04:48:00.681Z,1.87
2018-07-28T04:50:28.942Z,0.90
2018-07-28T04:52:57.170Z,0.90
2018-07-28T04:55:25.128Z,1.57
2018-07-28T04:57:53.385Z,0.90
2018-07-28T05:00:21.618Z,0.90
2018-07-28T05:02:49.831Z,0.90
2018-07-28T05:05:18.081Z,2.60
2018-07-28T05:07:46.335Z,1.10
2018-07-28T05:10:14.604Z,0.90
2018-07-28T05:12:42.867Z,0.90
2018-07-28T05:15:11.145Z,0.90
2018-07-28T05:17:39.117Z,1.00
2018-07-28T05:20:07.359Z,0.80
2018-07-28T05:22:35.597Z,0.90
2018-07-28T05:25:03.832Z,0.90
2018-07-28T05:27:32.085Z,0.90
2018-07-28T05:30:00.320Z,1.10
2018-07-28T05:32:28.575Z,0.90
2018-07-28T05:34:56.821Z,0.90
2018-07-28T05:37:25.103Z,0.90
2018-07-28T05:39:53.465Z,0.90
2018-07-28T05:42:21.827Z,0.90
2018-07-28T05:44:50.188Z,0.90
2018-07-28T05:47:18.405Z,0.90
2018-07-28T05:49:46.644Z,0.90
2018-07-28T05:52:15.084Z,0.90
2018-07-28T05:54:43.086Z,0.90
2018-07-28T05:57:11.320Z,0.90
2018-07-28T05:59:39.545Z,0.90
2018-07-28T06:02:07.831Z,0.90
2018-07-28T06:04:36.001Z,0.90
2018-07-28T06:07:04.510Z,0.90
2018-07-28T06:09:32.853Z,0.90
2018-07-28T06:12:01.119Z,0.90
2018-07-28T06:14:29.353Z,0.87
2018-07-28T06:16:57.666Z,0.83
2018-07-28T06:19:25.937Z,1.50
2018-07-28T06:21:54.265Z,0.90
2018-07-28T06:24:23.063Z,1.00
2018-07-28T06:26:51.269Z,1.67
2018-07-28T06:29:19.521Z,0.90
2018-07-28T06:31:47.771Z,0.87
2018-07-28T06:34:16.055Z,1.27
2018-07-28T06:36:44.332Z,1.10
2018-07-28T06:39:14.017Z,0.90
2018-07-28T06:41:42.279Z,0.90
2018-07-28T06:44:10.571Z,0.87
2018-07-28T06:46:39.002Z,0.90
2018-07-28T06:49:07.957Z,0.90
2018-07-28T06:51:36.188Z,0.90
2018-07-28T06:54:04.563Z,1.10
2018-07-28T06:56:32.819Z,0.90
2018-07-28T06:59:01.074Z,0.90
2018-07-28T07:01:29.318Z,0.90
2018-07-28T07:03:57.610Z,0.90
2018-07-28T07:06:25.862Z,1.63
2018-07-28T07:08:54.119Z,1.10
2018-07-28T07:11:22.357Z,0.90
2018-07-28T07:13:50.485Z,0.90
2018-07-28T07:16:18.759Z,1.67
2018-07-28T07:18:46.995Z,0.90
2018-07-28T07:21:15.264Z,2.67
2018-07-28T07:23:43.535Z,3.57
2018-07-28T07:26:11.788Z,1.30
2018-07-28T07:28:40.037Z,1.40
2018-07-28T07:31:08.320Z,6.37
2018-07-28T07:33:36.526Z,1.47
2018-07-28T07:36:04.807Z,1.23
2018-07-28T07:38:33.028Z,2.43
2018-07-28T07:41:01.652Z,2.40
2018-07-28T07:43:29.910Z,1.30
2018-07-28T07:45:58.180Z,3.00
2018-07-28T07:48:26.439Z,3.63
2018-07-28T07:50:54.760Z,2.10
2018-07-28T07:53:23.064Z,1.47
2018-07-28T07:55:51.288Z,1.63
2018-07-28T07:58:19.544Z,1.43
2018-07-28T08:00:47.780Z,4.57
2018-07-28T08:03:16.136Z,4.93
2018-07-28T08:05:44.389Z,3.00
2018-07-28T08:08:12.634Z,1.00
2018-07-28T08:10:40.933Z,0.90
2018-07-28T08:13:09.187Z,0.90
2018-07-28T08:15:37.437Z,3.73
2018-07-28T08:18:05.768Z,2.80
2018-07-28T08:20:34.022Z,1.20
2018-07-28T08:23:02.345Z,1.03
2018-07-28T08:25:30.355Z,1.90
2018-07-28T08:27:58.632Z,0.90
2018-07-28T08:30:26.961Z,4.23
2018-07-28T08:32:55.190Z,13.93
2018-07-28T08:35:23.525Z,1.30
2018-07-28T08:37:51.841Z,1.40
2018-07-28T08:40:20.033Z,2.07
2018-07-28T08:42:48.305Z,0.90
2018-07-28T08:45:16.728Z,1.00
2018-07-28T08:47:44.954Z,1.30
2018-07-28T08:50:13.203Z,3.23
2018-07-28T08:52:41.489Z,1.00
2018-07-28T08:55:09.767Z,0.90
2018-07-28T08:57:38.023Z,1.97
2018-07-28T09:00:07.194Z,1.23
2018-07-28T09:02:35.439Z,2.90
2018-07-28T09:05:03.677Z,0.90
2018-07-28T09:07:31.942Z,0.90
2018-07-28T09:10:00.835Z,0.90
2018-07-28T09:12:29.268Z,0.90
2018-07-28T09:14:57.333Z,0.90
2018-07-28T09:17:25.592Z,2.30
2018-07-28T09:19:53.838Z,0.90
2018-07-28T09:22:22.119Z,0.90
2018-07-28T09:24:50.438Z,1.20
2018-07-28T09:27:18.676Z,0.90
2018-07-28T09:29:46.906Z,0.90
2018-07-28T09:32:15.180Z,0.90
2018-07-28T09:34:43.434Z,0.90
2018-07-28T09:37:11.659Z,0.90
2018-07-28T09:42:30.916Z,1.27
2018-07-28T09:44:59.174Z,0.90
2018-07-28T09:47:27.386Z,1.03
2018-07-28T09:49:55.654Z,1.20
2018-07-28T09:52:23.913Z,0.90
2018-07-28T09:54:52.166Z,1.53
2018-07-28T09:57:21.297Z,0.90
2018-07-28T09:59:49.561Z,3.00
2018-07-28T10:02:17.820Z,2.97
2018-07-28T10:04:46.048Z,0.90
2018-07-28T10:16:13.402Z,1.33
2018-07-28T10:18:41.638Z,1.43
2018-07-28T10:21:09.899Z,1.23
2018-07-28T10:23:38.150Z,0.90
2018-07-28T10:26:06.444Z,1.47
2018-07-28T10:28:34.793Z,1.00
2018-07-28T10:31:03.004Z,1.00
2018-07-28T10:33:31.301Z,11.80
2018-07-28T10:42:10.136Z,21.00
2018-07-28T10:44:38.402Z,22.47
2018-07-28T10:47:06.642Z,19.70
2018-07-28T10:49:34.871Z,26.53
2018-07-28T10:52:03.144Z,20.67
2018-07-28T10:54:31.411Z,21.37
2018-07-28T10:56:59.669Z,21.37
2018-07-28T10:59:27.912Z,30.17
2018-07-28T11:01:56.137Z,20.23
2018-07-28T11:04:24.507Z,2.20
2018-07-28T11:06:52.813Z,1.70
2018-07-28T11:09:21.041Z,1.13
2018-07-28T11:11:49.302Z,4.73
2018-07-28T11:14:17.549Z,0.90
2018-07-28T11:16:47.602Z,0.90
2018-07-28T11:19:15.866Z,0.90
2018-07-28T11:21:44.099Z,1.10
2018-07-28T11:24:13.493Z,1.50
2018-07-28T11:26:41.721Z,0.87
2018-07-28T11:29:09.739Z,1.30
2018-07-28T11:31:49.553Z,1.93
2018-07-28T11:34:29.245Z,0.90
2018-07-28T11:37:09.194Z,0.90
2018-07-28T11:39:48.861Z,1.40
2018-07-28T11:42:28.320Z,0.90
2018-07-28T11:45:10.804Z,0.90
2018-07-28T11:47:39.051Z,0.90
2018-07-28T11:50:07.334Z,1.73
2018-07-28T11:52:35.685Z,1.97
2018-07-28T11:55:04.060Z,1.43
2018-07-28T11:57:32.098Z,1.27
2018-07-28T12:00:00.319Z,1.07
2018-07-28T12:02:28.595Z,0.90
2018-07-28T12:04:56.823Z,0.90
2018-07-28T12:07:24.790Z,3.37
2018-07-28T12:09:52.801Z,1.80
2018-07-28T12:12:21.037Z,1.73
2018-07-28T12:14:49.272Z,1.80
2018-07-28T12:17:17.508Z,1.00
2018-07-28T12:19:45.737Z,1.20
2018-07-28T12:22:14.003Z,1.33
2018-07-28T12:24:42.241Z,1.00
2018-07-28T12:27:10.501Z,1.27
2018-07-28T12:29:38.744Z,1.00
2018-07-28T12:32:07.006Z,0.90
2018-07-28T12:34:35.247Z,2.10
2018-07-28T12:37:03.561Z,1.77
2018-07-28T12:39:31.793Z,0.93
2018-07-28T12:42:00.077Z,1.10
2018-07-28T12:44:28.415Z,0.90
2018-07-28T12:46:56.679Z,1.20
2018-07-28T12:49:24.969Z,2.07
2018-07-28T12:51:53.213Z,1.03
2018-07-28T12:54:21.459Z,0.90
2018-07-28T12:56:49.438Z,2.20
2018-07-28T12:59:17.674Z,1.20
2018-07-28T13:01:45.928Z,0.90
2018-07-28T13:04:14.177Z,1.23
2018-07-28T13:06:42.395Z,0.90
2018-07-28T13:09:11.939Z,5.33
2018-07-28T13:11:40.191Z,0.90
2018-07-28T13:14:08.488Z,0.90
2018-07-28T13:16:36.492Z,0.90
2018-07-28T13:19:04.730Z,1.20
2018-07-28T13:21:32.962Z,0.90
2018-07-28T13:24:01.245Z,1.20
2018-07-28T13:26:29.479Z,1.20
2018-07-28T13:28:57.693Z,1.20
2018-07-28T13:31:25.933Z,0.90
2018-07-28T13:33:54.418Z,0.90
2018-07-28T13:36:22.654Z,1.00
2018-07-28T13:38:50.882Z,2.00
2018-07-28T13:41:19.263Z,2.30
2018-07-28T13:43:47.246Z,1.17
2018-07-28T13:46:15.461Z,0.90
2018-07-28T13:48:43.683Z,1.00
2018-07-28T13:51:11.926Z,1.10
2018-07-28T13:53:40.257Z,0.90
2018-07-28T13:56:08.521Z,1.20
2018-07-28T13:58:36.779Z,1.13
2018-07-28T14:01:05.005Z,1.00
2018-07-28T14:03:33.268Z,0.90
2018-07-28T14:06:01.556Z,1.17
2018-07-28T14:08:29.799Z,1.00
2018-07-28T14:10:58.037Z,0.90
2018-07-28T14:13:26.282Z,1.00
2018-07-28T14:15:54.505Z,3.63
2018-07-28T14:18:22.771Z,1.37
2018-07-28T14:20:50.991Z,0.90
2018-07-28T14:23:19.269Z,0.90
2018-07-28T14:25:47.486Z,1.03
2018-07-28T14:28:15.734Z,0.93
2018-07-28T14:30:44.003Z,0.90
2018-07-28T14:33:12.261Z,0.90
2018-07-28T14:35:40.478Z,2.40
2018-07-28T14:38:08.764Z,1.67
2018-07-28T14:40:37.000Z,0.90
2018-07-28T14:43:05.264Z,1.07
2018-07-28T14:45:33.516Z,1.73
2018-07-28T14:48:01.749Z,1.00
2018-07-28T14:50:29.961Z,0.90
2018-07-28T14:52:58.290Z,2.07
2018-07-28T14:55:26.529Z,0.90
2018-07-28T14:57:54.749Z,0.90
2018-07-28T15:00:22.997Z,5.30
2018-07-28T15:02:51.274Z,1.07
2018-07-28T15:05:19.291Z,6.23
2018-07-28T15:07:47.536Z,1.70
2018-07-28T15:10:15.810Z,1.37
2018-07-28T15:12:44.037Z,1.00
2018-07-28T15:15:12.279Z,1.83
2018-07-28T15:17:40.493Z,0.90
2018-07-28T15:20:08.767Z,0.90
2018-07-28T15:22:37.004Z,1.20
2018-07-28T15:25:05.695Z,0.90
2018-07-28T15:27:33.922Z,1.20
2018-07-28T15:30:02.160Z,1.77
2018-07-28T15:32:30.423Z,1.97
2018-07-28T15:35:00.020Z,1.70
2018-07-28T15:37:28.235Z,1.37
2018-07-28T15:39:56.703Z,2.17
2018-07-28T15:45:09.981Z,1.00
2018-07-28T15:47:38.229Z,1.10
2018-07-28T15:50:06.666Z,3.00
2018-07-28T15:52:34.865Z,1.23
2018-07-28T15:55:03.137Z,0.90
2018-07-28T16:00:18.372Z,0.90
2018-07-28T16:02:48.389Z,0.90
2018-07-28T16:05:16.714Z,4.60
2018-07-28T16:07:44.956Z,1.00
2018-07-28T16:10:13.175Z,0.90
2018-07-28T16:12:41.393Z,0.90
2018-07-28T16:15:09.713Z,1.33
2018-07-28T16:17:37.672Z,0.90
2018-07-28T16:20:06.044Z,1.33
2018-07-28T16:22:34.204Z,0.90
2018-07-28T16:25:02.473Z,0.90
2018-07-28T16:27:30.696Z,0.90
2018-07-28T16:29:58.908Z,2.27
2018-07-28T16:32:27.170Z,0.90
2018-07-28T16:34:55.411Z,0.90
2018-07-28T16:37:23.683Z,0.90
2018-07-28T16:39:51.917Z,1.47
2018-07-28T16:42:20.201Z,0.90
2018-07-28T16:44:48.525Z,0.90
2018-07-28T16:47:16.685Z,1.20
2018-07-28T16:49:44.936Z,0.90
2018-07-28T16:52:13.204Z,2.60
2018-07-28T16:54:41.448Z,0.90
2018-07-28T16:57:09.714Z,1.53
2018-07-28T16:59:37.685Z,0.90
2018-07-28T17:02:06.008Z,1.00
2018-07-28T17:04:34.294Z,0.90
2018-07-28T17:07:02.577Z,0.90
2018-07-28T17:09:30.775Z,0.90
2018-07-28T17:11:59.017Z,0.90
2018-07-28T17:14:27.223Z,1.10
2018-07-28T17:16:55.498Z,0.90
2018-07-28T17:19:23.760Z,0.90
2018-07-28T17:21:52.013Z,0.90
2018-07-28T17:24:20.268Z,0.90
2018-07-28T17:26:48.212Z,0.90
2018-07-28T17:29:16.531Z,1.00
2018-07-28T17:31:44.759Z,0.90
2018-07-28T17:34:13.012Z,0.90
2018-07-28T17:36:41.006Z,0.90
2018-07-28T17:39:10.107Z,0.90
2018-07-28T17:41:38.394Z,2.57
2018-07-28T17:44:06.844Z,0.90
2018-07-28T17:46:35.125Z,0.90
2018-07-28T17:49:03.366Z,0.90
2018-07-28T17:51:31.956Z,0.90
2018-07-28T17:54:00.184Z,0.90
2018-07-28T17:56:28.398Z,0.90
2018-07-28T17:58:56.748Z,1.10
2018-07-28T18:01:25.030Z,0.90
2018-07-28T18:03:53.312Z,0.90
2018-07-28T18:06:21.562Z,1.00
2018-07-28T18:08:49.853Z,0.90
2018-07-28T18:11:18.099Z,1.73
2018-07-28T18:13:46.311Z,0.90
2018-07-28T18:16:14.682Z,0.90
2018-07-28T18:18:42.946Z,0.90
2018-07-28T18:21:11.178Z,0.90
2018-07-28T18:23:39.430Z,0.90
2018-07-28T18:26:07.767Z,0.90
2018-07-28T18:28:35.996Z,0.90
2018-07-28T18:31:04.222Z,1.00
2018-07-28T18:33:32.510Z,0.90
2018-07-28T18:36:00.739Z,0.90
2018-07-28T18:38:29.011Z,0.90
2018-07-28T18:40:57.282Z,0.90
2018-07-28T18:43:25.522Z,0.90
2018-07-28T18:45:53.851Z,0.90
2018-07-28T18:48:22.117Z,0.90
2018-07-28T18:50:50.493Z,0.90
2018-07-28T18:53:18.730Z,0.90
2018-07-28T18:55:46.986Z,0.90
2018-07-28T18:58:15.226Z,0.90
2018-07-28T19:00:43.512Z,0.90
2018-07-28T19:03:11.763Z,0.90
2018-07-28T19:05:39.973Z,0.90
2018-07-28T19:08:08.286Z,0.90
2018-07-28T19:10:36.292Z,0.90
2018-07-28T19:13:09.934Z,0.90
2018-07-28T19:15:38.157Z,0.90
2018-07-28T19:18:11.964Z,0.90
2018-07-28T19:20:40.279Z,0.90
2018-07-28T19:23:14.052Z,0.90
2018-07-28T19:25:42.363Z,0.90
2018-07-28T19:28:16.173Z,0.90
2018-07-28T19:30:44.419Z,0.90
2018-07-28T19:33:12.626Z,0.90
2018-07-28T19:35:46.257Z,0.90
2018-07-28T19:38:14.505Z,0.90
2018-07-28T19:40:42.770Z,0.90
2018-07-28T19:43:10.990Z,0.90
2018-07-28T19:45:39.461Z,0.90
2018-07-28T19:48:07.719Z,0.90
2018-07-28T19:50:35.970Z,0.90
2018-07-28T19:53:04.195Z,0.90
2018-07-28T19:55:32.433Z,0.90
2018-07-28T19:58:00.654Z,0.90
2018-07-28T20:00:28.892Z,0.90
2018-07-28T20:02:57.117Z,0.90
2018-07-28T20:05:25.793Z,0.90
2018-07-28T20:07:54.011Z,0.90
2018-07-28T20:10:22.476Z,1.47
2018-07-28T20:12:50.719Z,0.90
2018-07-28T20:15:18.956Z,0.90
2018-07-28T20:17:47.179Z,0.90
2018-07-28T20:20:15.402Z,0.90
2018-07-28T20:22:43.637Z,0.90
2018-07-28T20:25:11.844Z,0.90
2018-07-28T20:27:40.145Z,0.87
2018-07-28T20:30:08.404Z,0.90
2018-07-28T20:32:36.679Z,0.90
2018-07-28T20:35:05.161Z,0.90
2018-07-28T20:37:33.407Z,0.90
2018-07-28T20:40:01.650Z,0.90
2018-07-28T20:42:29.856Z,0.90
2018-07-28T20:44:58.076Z,0.90
2018-07-28T20:47:26.328Z,0.90
2018-07-28T20:49:54.573Z,0.90
2018-07-28T20:52:22.846Z,0.90
2018-07-28T20:54:50.817Z,0.90
2018-07-28T20:57:19.032Z,0.90
2018-07-28T20:59:47.279Z,0.90
2018-07-28T21:02:15.521Z,0.90
2018-07-28T21:04:43.753Z,0.90
2018-07-28T21:07:12.006Z,0.90
2018-07-28T21:09:40.215Z,0.90
2018-07-28T21:12:08.480Z,0.90
2018-07-28T21:14:36.729Z,0.90
2018-07-28T21:17:04.955Z,0.90
2018-07-28T21:19:33.165Z,0.90
2018-07-28T21:22:01.376Z,0.90
2018-07-28T21:24:29.598Z,0.90
2018-07-28T21:26:57.863Z,0.90
2018-07-28T21:29:25.843Z,0.90
2018-07-28T21:31:54.102Z,0.90
2018-07-28T21:34:22.358Z,0.90
2018-07-28T21:36:50.598Z,0.90
2018-07-28T21:39:18.851Z,0.90
2018-07-28T21:41:47.111Z,0.90
2018-07-28T21:44:15.329Z,0.80
2018-07-28T21:46:43.573Z,0.90
2018-07-28T21:49:11.807Z,0.90
2018-07-28T21:51:40.019Z,1.00
2018-07-28T21:54:08.282Z,0.90
2018-07-28T21:56:36.529Z,0.90
2018-07-28T21:59:04.792Z,0.90
2018-07-28T22:01:33.029Z,0.90
2018-07-28T22:04:02.995Z,0.90
2018-07-28T22:06:32.330Z,0.90
2018-07-28T22:09:00.331Z,0.90
2018-07-28T22:11:28.616Z,0.90
2018-07-28T22:13:56.808Z,0.90
2018-07-28T22:16:25.041Z,0.90
2018-07-28T22:18:53.309Z,0.90
2018-07-28T22:21:21.554Z,0.90
2018-07-28T22:23:49.838Z,0.90
2018-07-28T22:26:18.079Z,0.90
2018-07-28T22:28:46.287Z,0.90
2018-07-28T22:31:14.499Z,0.80
2018-07-28T22:33:42.718Z,0.90
2018-07-28T22:36:10.961Z,0.87
2018-07-28T22:38:39.183Z,0.90
2018-07-28T22:41:07.477Z,0.90
2018-07-28T22:43:35.711Z,0.90
2018-07-28T22:46:03.960Z,0.90
2018-07-28T22:48:32.197Z,0.90
2018-07-28T22:51:00.460Z,0.90
2018-07-28T22:53:28.692Z,0.90
2018-07-28T22:55:56.918Z,0.90
2018-07-28T22:58:25.123Z,0.90
2018-07-28T23:00:53.343Z,0.80
2018-07-28T23:03:21.305Z,0.90
2018-07-28T23:05:49.532Z,0.90
2018-07-28T23:08:17.733Z,0.80
2018-07-28T23:10:45.952Z,0.90
2018-07-28T23:13:14.188Z,0.90
2018-07-28T23:15:42.440Z,0.90
2018-07-28T23:18:10.689Z,0.80
2018-07-28T23:20:38.890Z,0.90
2018-07-28T23:23:07.144Z,0.90
2018-07-28T23:25:35.356Z,0.90
2018-07-28T23:28:03.619Z,0.90
2018-07-28T23:30:31.807Z,0.90
2018-07-28T23:33:06.547Z,0.90
2018-07-28T23:35:34.757Z,0.90
2018-07-28T23:38:02.989Z,0.80
2018-07-28T23:40:31.198Z,0.90
2018-07-28T23:42:59.418Z,0.90
2018-07-28T23:45:27.675Z,0.90
2018-07-28T23:47:55.893Z,0.80
2018-07-28T23:50:24.102Z,0.90
2018-07-28T23:52:52.307Z,0.90
2018-07-28T23:55:20.510Z,0.90
2018-07-28T23:57:48.702Z,0.90
